Time;durP1;ratioP1;P1;durP2;ratioP2;P2;SDS_P1;SDS_P2;PMS_P1;PMS_P2;Temp;Humidity;BMP_temperature;BMP_pressure;BME280_temperature;BME280_humidity;BME280_pressure;Samples;Min_cycle;Max_cycle;Signal;HPM_P1;HPM_P2
2023/12/24 00:01:57;;;;;;;;;;;;;;;8.69;72.25;100166.66;5048228;28;19929;-82
2023/12/24 00:04:24;;;;;;;;;;;;;;;8.65;72.63;100154.50;5039494;28;19933;-94
2023/12/24 00:06:51;;;;;;;;;;;;;;;8.65;72.23;100157.13;5056600;28;19969;-83
2023/12/24 00:09:17;;;;;;;;;;;;;;;8.70;71.79;100142.25;5048979;28;20307;-83
2023/12/24 00:11:44;;;;;;;;;;;;;;;8.79;71.40;100153.47;5037412;28;19933;-81
2023/12/24 00:14:11;;;;;;;;;;;;;;;8.76;71.68;100135.19;5029562;28;19971;-82
2023/12/24 00:16:41;;;;;;;;;;;;;;;8.78;71.46;100143.91;5046966;28;19925;-84
2023/12/24 00:19:08;;;;;;;;;;;;;;;8.77;71.47;100135.16;5049191;28;19988;-82
2023/12/24 00:21:35;;;;;;;;;;;;;;;8.85;71.15;100162.13;5039004;28;20012;-87
2023/12/24 00:24:01;;;;;;;;;;;;;;;8.85;71.29;100180.44;5037452;28;19932;-82
2023/12/24 00:26:28;;;;;;;;;;;;;;;8.78;71.55;100170.91;5045453;28;20017;-82
2023/12/24 00:28:55;;;;;;;;;;;;;;;8.80;71.75;100152.59;5048947;28;19933;-83
2023/12/24 00:31:22;;;;;;;;;;;;;;;8.82;71.40;100156.91;5049137;28;20016;-82
2023/12/24 00:33:49;;;;;;;;;;;;;;;8.88;71.25;100148.13;5041298;28;20028;-83
2023/12/24 00:36:15;;;;;;;;;;;;;;;8.74;72.22;100142.19;5048929;28;19932;-82
2023/12/24 00:38:42;;;;;;;;;;;;;;;8.74;72.43;100139.59;5037138;28;19932;-82
2023/12/24 00:41:09;;;;;;;;;;;;;;;8.66;72.64;100130.09;5028942;28;19925;-82
2023/12/24 00:43:37;;;;;;;;;;;;;;;8.68;72.73;100140.53;5029753;28;19926;-82
2023/12/24 00:46:03;;;;;;;;;;;;;;;8.72;72.53;100123.91;5029590;28;19925;-83
2023/12/24 00:48:30;;;;;;;;;;;;;;;8.72;72.77;100113.44;5038145;28;19939;-83
2023/12/24 00:50:57;;;;;;;;;;;;;;;8.68;73.08;100133.53;5037106;28;19925;-83
2023/12/24 00:53:23;;;;;;;;;;;;;;;8.69;72.77;100131.81;5029366;28;20376;-83
2023/12/24 00:55:50;;;;;;;;;;;;;;;8.75;72.38;100118.63;5033834;28;19928;-82
2023/12/24 00:58:17;;;;;;;;;;;;;;;8.78;72.28;100134.28;5049520;28;19963;-84
2023/12/24 01:00:46;;;;;;;;;;;;;;;8.79;71.92;100119.44;5046521;28;19933;-82
2023/12/24 01:03:13;;;;;;;;;;;;;;;8.77;72.14;100126.47;5044315;28;19960;-84
2023/12/24 01:05:40;;;;;;;;;;;;;;;8.78;72.09;100117.75;5046090;28;19929;-84
2023/12/24 01:08:09;;;;;;;;;;;;;;;8.68;72.84;100122.22;5035020;28;19979;-81
2023/12/24 01:10:35;;;;;;;;;;;;;;;8.77;72.29;100118.63;5029884;28;19956;-85
2023/12/24 01:13:02;;;;;;;;;;;;;;;8.67;72.68;100120.47;5043957;28;19932;-83
2023/12/24 01:15:29;;;;;;;;;;;;;;;8.70;72.17;100110.84;5038798;28;19925;-83
2023/12/24 01:17:56;;;;;;;;;;;;;;;8.64;72.85;100125.75;5049689;28;19924;-83
2023/12/24 01:20:23;;;;;;;;;;;;;;;8.70;72.16;100121.31;5045338;28;19972;-82
2023/12/24 01:22:50;;;;;;;;;;;;;;;8.65;72.56;100115.25;5041763;28;19925;-82
2023/12/24 01:25:17;;;;;;;;;;;;;;;8.66;72.32;100145.78;5048098;28;19925;-82
2023/12/24 01:27:44;;;;;;;;;;;;;;;8.63;72.15;100119.66;5052202;28;19943;-84
2023/12/24 01:30:11;;;;;;;;;;;;;;;8.68;72.02;100141.38;5052604;28;19932;-83
2023/12/24 01:32:37;;;;;;;;;;;;;;;8.64;72.08;100142.28;5068507;28;19936;-82
2023/12/24 01:35:04;;;;;;;;;;;;;;;8.54;72.77;100166.81;5044895;28;19935;-83
2023/12/24 01:37:31;;;;;;;;;;;;;;;8.65;71.96;100159.72;5044105;28;19967;-82
2023/12/24 01:39:58;;;;;;;;;;;;;;;8.56;72.74;100165.06;5038732;28;19925;-83
2023/12/24 01:42:24;;;;;;;;;;;;;;;8.57;72.87;100182.47;5050188;28;19925;-87
2023/12/24 01:44:51;;;;;;;;;;;;;;;8.58;72.72;100173.75;5041436;28;19935;-83
2023/12/24 01:47:18;;;;;;;;;;;;;;;8.55;73.20;100173.81;5049039;28;19928;-83
2023/12/24 01:49:45;;;;;;;;;;;;;;;8.61;73.11;100176.34;5047451;28;19939;-85
2023/12/24 01:52:12;;;;;;;;;;;;;;;8.52;73.58;100158.16;5034745;28;19932;-82
2023/12/24 01:54:38;;;;;;;;;;;;;;;8.53;73.76;100178.19;5032975;28;19931;-85
2023/12/24 01:57:06;;;;;;;;;;;;;;;8.52;73.75;100179.06;5036165;28;19926;-81
2023/12/24 01:59:33;;;;;;;;;;;;;;;8.52;73.64;100179.06;5045063;28;19935;-85
2023/12/24 02:02:01;;;;;;;;;;;;;;;8.56;73.44;100187.72;5049250;28;19929;-81
2023/12/24 02:04:27;;;;;;;;;;;;;;;8.60;73.21;100182.44;5044965;28;19982;-85
2023/12/24 02:06:54;;;;;;;;;;;;;;;8.52;73.72;100190.38;5040397;28;19932;-82
2023/12/24 02:09:21;;;;;;;;;;;;;;;8.56;73.64;100188.63;5031534;28;19935;-83
2023/12/24 02:11:47;;;;;;;;;;;;;;;8.53;74.04;100196.50;5018016;28;19925;-83
2023/12/24 02:14:14;;;;;;;;;;;;;;;8.42;75.00;100193.09;5040482;28;19931;-82
2023/12/24 02:16:40;;;;;;;;;;;;;;;8.35;75.60;100187.91;5048444;28;20023;-83
2023/12/24 02:19:09;;;;;;;;;;;;;;;8.34;75.54;100196.66;5048789;28;20356;-82
2023/12/24 02:21:36;;;;;;;;;;;;;;;8.35;75.47;100192.28;5040176;28;19926;-82
2023/12/24 02:24:03;;;;;;;;;;;;;;;8.38;75.28;100191.38;5048971;28;20388;-82
2023/12/24 02:26:31;;;;;;;;;;;;;;;8.31;75.68;100188.84;5039406;28;19925;-83
2023/12/24 02:29:24;;;;;;;;;;;;;;;8.35;75.52;100200.13;5034713;28;19979;-82
2023/12/24 02:31:50;;;;;;;;;;;;;;;8.40;75.24;100197.44;5034248;28;19924;-83
2023/12/24 02:34:17;;;;;;;;;;;;;;;8.43;74.66;100194.81;5040585;28;19976;-85
2023/12/24 02:36:45;;;;;;;;;;;;;;;8.36;75.26;100200.09;5046638;28;19933;-81
2023/12/24 02:39:12;;;;;;;;;;;;;;;8.34;75.10;100190.53;5048666;28;19933;-82
2023/12/24 02:41:39;;;;;;;;;;;;;;;8.31;75.50;100183.63;5045291;28;19935;-83
2023/12/24 02:44:05;;;;;;;;;;;;;;;8.33;75.55;100192.28;5033879;28;19925;-81
2023/12/24 02:46:32;;;;;;;;;;;;;;;8.31;75.59;100201.91;5031844;28;20076;-83
2023/12/24 02:49:00;;;;;;;;;;;;;;;8.29;75.75;100194.97;5044157;28;19925;-82
2023/12/24 02:51:27;;;;;;;;;;;;;;;8.32;75.11;100185.31;5045126;28;19931;-82
2023/12/24 02:53:53;;;;;;;;;;;;;;;8.30;75.44;100181.88;5032102;28;19932;-85
2023/12/24 02:56:20;;;;;;;;;;;;;;;8.27;75.48;100163.59;5047738;28;19932;-83
2023/12/24 02:58:47;;;;;;;;;;;;;;;8.35;74.44;100169.59;5045060;28;20234;-83
2023/12/24 03:01:14;;;;;;;;;;;;;;;8.43;73.95;100186.97;5043964;28;19924;-86
2023/12/24 03:03:40;;;;;;;;;;;;;;;8.48;73.27;100177.38;5047838;28;19943;-84
2023/12/24 03:06:07;;;;;;;;;;;;;;;8.44;73.47;100162.56;5048493;28;19925;-82
2023/12/24 03:08:34;;;;;;;;;;;;;;;8.54;72.41;100156.38;5039528;28;19931;-82
2023/12/24 03:11:01;;;;;;;;;;;;;;;8.50;72.86;100144.19;5039599;28;19982;-82
2023/12/24 03:13:28;;;;;;;;;;;;;;;8.47;72.77;100144.25;5040123;28;19932;-82
2023/12/24 03:15:54;;;;;;;;;;;;;;;8.50;72.82;100146.81;5042616;28;19925;-84
2023/12/24 03:18:21;;;;;;;;;;;;;;;8.49;72.60;100137.25;5036056;28;19936;-82
2023/12/24 03:20:48;;;;;;;;;;;;;;;8.49;72.81;100153.81;5039311;28;20023;-86
2023/12/24 03:23:15;;;;;;;;;;;;;;;8.53;72.42;100155.50;5047699;28;20032;-83
2023/12/24 03:25:42;;;;;;;;;;;;;;;8.46;72.94;100159.06;5044729;28;20318;-83
2023/12/24 03:28:08;;;;;;;;;;;;;;;8.48;72.94;100170.38;5033039;28;19982;-83
2023/12/24 03:30:35;;;;;;;;;;;;;;;8.51;72.89;100172.09;5044520;28;19925;-81
2023/12/24 03:33:02;;;;;;;;;;;;;;;8.58;72.15;100167.69;5035421;28;19929;-82
2023/12/24 03:35:29;;;;;;;;;;;;;;;8.56;72.30;100162.47;5037126;28;19925;-83
2023/12/24 03:37:56;;;;;;;;;;;;;;;8.65;71.85;100175.44;5039732;28;19932;-82
2023/12/24 03:40:23;;;;;;;;;;;;;;;8.63;72.01;100151.06;5039244;28;20450;-87
2023/12/24 03:42:49;;;;;;;;;;;;;;;8.61;72.15;100131.88;5026985;28;19925;-83
2023/12/24 03:45:16;;;;;;;;;;;;;;;8.57;72.50;100132.78;5035425;28;19947;-82
2023/12/24 03:47:43;;;;;;;;;;;;;;;8.58;72.30;100121.44;5037474;28;19924;-82
2023/12/24 03:50:10;;;;;;;;;;;;;;;8.52;72.69;100127.63;5033222;28;19925;-83
2023/12/24 03:52:36;;;;;;;;;;;;;;;8.49;72.86;100113.72;5026707;28;19971;-84
2023/12/24 03:55:03;;;;;;;;;;;;;;;8.51;72.98;100117.16;5041172;28;20023;-84
2023/12/24 03:57:30;;;;;;;;;;;;;;;8.44;73.24;100107.63;5034880;28;19929;-83
2023/12/24 03:59:56;;;;;;;;;;;;;;;8.46;73.37;100108.53;5031712;28;19932;-83
2023/12/24 04:02:24;;;;;;;;;;;;;;;8.43;73.45;100114.63;5047791;28;19925;-83
2023/12/24 04:04:51;;;;;;;;;;;;;;;8.41;73.60;100097.22;5038310;28;19929;-84
2023/12/24 04:07:18;;;;;;;;;;;;;;;8.35;73.93;100087.69;5038503;28;19925;-83
2023/12/24 04:09:45;;;;;;;;;;;;;;;8.39;73.88;100099.00;5036235;28;19931;-82
2023/12/24 04:12:11;;;;;;;;;;;;;;;8.35;74.09;100101.63;5035535;28;19953;-89
2023/12/24 04:14:38;;;;;;;;;;;;;;;8.34;73.88;100093.78;5034967;28;19925;-85
2023/12/24 04:17:06;;;;;;;;;;;;;;;8.31;74.48;100091.22;5026692;28;20016;-83
2023/12/24 04:19:32;;;;;;;;;;;;;;;8.33;73.92;100074.63;5028318;28;19937;-81
2023/12/24 04:21:59;;;;;;;;;;;;;;;8.34;74.02;100092.06;5047033;28;20019;-81
2023/12/24 04:24:26;;;;;;;;;;;;;;;8.35;74.17;100106.84;5041674;28;19925;-86
2023/12/24 04:26:52;;;;;;;;;;;;;;;8.33;74.10;100111.25;5046893;28;19925;-82
2023/12/24 04:29:19;;;;;;;;;;;;;;;8.38;73.90;100098.09;5046906;28;19924;-84
2023/12/24 04:31:46;;;;;;;;;;;;;;;8.33;74.29;100103.41;5034892;28;19937;-83
2023/12/24 04:34:12;;;;;;;;;;;;;;;8.33;74.39;100094.69;5036837;28;20344;-81
2023/12/24 04:36:39;;;;;;;;;;;;;;;8.39;74.31;100107.69;5037825;28;20364;-82
2023/12/24 04:39:06;;;;;;;;;;;;;;;8.35;74.63;100099.00;5045725;28;19924;-84
2023/12/24 04:41:33;;;;;;;;;;;;;;;8.36;74.59;100094.66;5045229;28;19925;-83
2023/12/24 04:44:03;;;;;;;;;;;;;;;8.32;74.90;100072.91;5046394;28;19924;-82
2023/12/24 04:46:29;;;;;;;;;;;;;;;8.33;74.71;100079.88;5046065;28;19964;-82
2023/12/24 04:48:56;;;;;;;;;;;;;;;8.36;74.51;100068.50;5046643;28;19932;-83
2023/12/24 04:51:24;;;;;;;;;;;;;;;8.36;74.52;100060.66;5035241;28;19931;-84
2023/12/24 04:53:51;;;;;;;;;;;;;;;8.39;74.70;100062.38;5044461;28;19926;-83
2023/12/24 04:56:18;;;;;;;;;;;;;;;8.47;74.03;100078.84;5030794;28;19926;-82
2023/12/24 04:58:45;;;;;;;;;;;;;;;8.42;74.50;100050.13;5030345;28;19929;-82
2023/12/24 05:01:13;;;;;;;;;;;;;;;8.38;74.42;100044.97;5037419;28;19935;-83
2023/12/24 05:03:40;;;;;;;;;;;;;;;8.45;74.46;100057.09;5039590;28;20003;-83
2023/12/24 05:06:07;;;;;;;;;;;;;;;8.36;75.00;100048.44;5036683;28;19925;-82
2023/12/24 05:08:34;;;;;;;;;;;;;;;8.34;74.99;100047.63;5040373;28;19979;-84
2023/12/24 05:11:07;;;;;;;;;;;;;;;8.33;75.22;100050.25;5034413;28;19952;-84
2023/12/24 05:13:36;;;;;;;;;;;;;;;8.30;75.09;100040.69;5045526;28;19925;-82
2023/12/24 05:16:03;;;;;;;;;;;;;;;8.39;74.86;100050.16;5042840;28;20339;-86
2023/12/24 05:18:30;;;;;;;;;;;;;;;8.31;75.16;100047.66;5050694;28;19931;-83
2023/12/24 05:20:57;;;;;;;;;;;;;;;8.33;75.21;100038.03;5042014;28;19925;-87
2023/12/24 05:23:24;;;;;;;;;;;;;;;8.33;75.23;100038.03;5031110;28;19925;-90
2023/12/24 05:25:52;;;;;;;;;;;;;;;8.38;75.09;100034.50;5031454;28;19932;-84
2023/12/24 05:28:19;;;;;;;;;;;;;;;8.33;75.31;100043.25;5041048;28;19926;-82
2023/12/24 05:30:46;;;;;;;;;;;;;;;8.34;75.41;100050.22;5047661;28;19939;-84
2023/12/24 05:33:13;;;;;;;;;;;;;;;8.33;75.43;100048.50;5043052;28;19979;-83
2023/12/24 05:35:40;;;;;;;;;;;;;;;8.38;75.33;100050.19;5050417;28;19931;-83
2023/12/24 05:38:06;;;;;;;;;;;;;;;8.41;75.25;100055.38;5044222;28;19925;-82
2023/12/24 05:40:33;;;;;;;;;;;;;;;8.42;75.28;100049.28;5039384;28;19952;-83
2023/12/24 05:43:00;;;;;;;;;;;;;;;8.46;75.14;100064.06;5053594;28;19931;-84
2023/12/24 05:45:27;;;;;;;;;;;;;;;8.47;75.10;100071.00;5040343;28;19931;-82
2023/12/24 05:47:53;;;;;;;;;;;;;;;8.46;74.96;100064.94;5036937;28;19925;-84
2023/12/24 05:50:22;;;;;;;;;;;;;;;8.46;75.35;100071.91;5044324;28;19947;-83
2023/12/24 05:52:52;;;;;;;;;;;;;;;8.48;75.40;100063.16;5039505;28;19993;-82
2023/12/24 05:55:19;;;;;;;;;;;;;;;8.45;75.53;100057.09;5040234;28;20016;-81
2023/12/24 05:57:46;;;;;;;;;;;;;;;8.48;75.53;100070.13;5049224;28;19952;-84
2023/12/24 06:00:13;;;;;;;;;;;;;;;8.46;75.72;100069.31;5042124;28;20027;-82
2023/12/24 06:02:39;;;;;;;;;;;;;;;8.47;75.63;100087.59;5038550;28;20003;-84
2023/12/24 06:05:06;;;;;;;;;;;;;;;8.50;75.60;100055.28;5037419;28;19932;-82
2023/12/24 06:07:33;;;;;;;;;;;;;;;8.49;75.53;100046.59;5045982;28;19925;-82
2023/12/24 06:10:00;;;;;;;;;;;;;;;8.53;75.28;100050.03;5050448;28;19925;-82
2023/12/24 06:12:27;;;;;;;;;;;;;;;8.51;75.50;100043.94;5049907;28;19925;-82
2023/12/24 06:14:54;;;;;;;;;;;;;;;8.55;75.50;100043.03;5049556;28;19925;-83
2023/12/24 06:17:20;;;;;;;;;;;;;;;8.53;75.46;100029.97;5049753;28;19943;-82
2023/12/24 06:19:47;;;;;;;;;;;;;;;8.56;75.57;100034.31;5041972;28;19940;-82
2023/12/24 06:22:14;;;;;;;;;;;;;;;8.55;75.67;100022.09;5039186;28;19925;-82
2023/12/24 06:24:41;;;;;;;;;;;;;;;8.53;76.19;100009.06;5055770;28;19931;-84
2023/12/24 06:27:08;;;;;;;;;;;;;;;8.45;76.47;99989.13;5047540;28;19925;-82
2023/12/24 06:29:36;;;;;;;;;;;;;;;8.45;76.31;99973.44;5041940;28;19932;-83
2023/12/24 06:32:03;;;;;;;;;;;;;;;8.44;76.74;99966.44;5044259;28;19929;-81
2023/12/24 06:34:29;;;;;;;;;;;;;;;8.45;76.62;99963.81;5040914;28;20015;-81
2023/12/24 06:36:56;;;;;;;;;;;;;;;8.44;76.77;99961.19;5041419;28;19925;-83
2023/12/24 06:39:23;;;;;;;;;;;;;;;8.43;76.73;99952.50;5047171;28;19928;-82
2023/12/24 06:41:50;;;;;;;;;;;;;;;8.48;76.39;99945.47;5048039;28;19931;-82
2023/12/24 06:44:17;;;;;;;;;;;;;;;8.46;76.72;99969.94;5049300;28;19967;-83
2023/12/24 06:46:43;;;;;;;;;;;;;;;8.42;76.88;99953.38;5040897;28;19959;-83
2023/12/24 06:49:10;;;;;;;;;;;;;;;8.32;77.70;99957.84;5035034;28;19931;-82
2023/12/24 06:51:37;;;;;;;;;;;;;;;8.38;76.97;99961.28;5047190;28;20008;-82
2023/12/24 06:54:03;;;;;;;;;;;;;;;8.44;76.74;99937.66;5043669;28;19925;-83
2023/12/24 06:56:30;;;;;;;;;;;;;;;8.42;76.68;99945.53;5046045;28;19925;-82
2023/12/24 06:58:57;;;;;;;;;;;;;;;8.43;76.64;99954.22;5044599;28;19925;-85
2023/12/24 07:01:24;;;;;;;;;;;;;;;8.48;76.30;99955.06;5045933;28;19925;-82
2023/12/24 07:03:51;;;;;;;;;;;;;;;8.43;76.60;99962.06;5040778;28;19925;-88
2023/12/24 07:06:17;;;;;;;;;;;;;;;8.47;76.25;99972.53;5040392;28;19925;-83
2023/12/24 07:08:44;;;;;;;;;;;;;;;8.40;76.50;99964.72;5040148;28;19924;-82
2023/12/24 07:11:11;;;;;;;;;;;;;;;8.43;76.50;99980.38;5049033;28;20016;-84
2023/12/24 07:13:38;;;;;;;;;;;;;;;8.38;76.65;99983.06;5032202;28;19925;-82
2023/12/24 07:16:04;;;;;;;;;;;;;;;8.35;77.23;99988.34;5049990;28;19929;-82
2023/12/24 07:18:31;;;;;;;;;;;;;;;8.36;77.00;99980.47;5037388;28;19924;-83
2023/12/24 07:20:58;;;;;;;;;;;;;;;8.44;76.76;99969.94;5033412;28;19947;-82
2023/12/24 07:23:25;;;;;;;;;;;;;;;8.33;77.50;99970.06;5040419;28;19925;-81
2023/12/24 07:25:52;;;;;;;;;;;;;;;8.48;76.63;99969.00;5040058;28;19925;-83
2023/12/24 07:28:19;;;;;;;;;;;;;;;8.39;77.24;99968.25;5046567;28;19925;-83
2023/12/24 07:30:45;;;;;;;;;;;;;;;8.55;76.18;99959.34;5036892;28;19924;-83
2023/12/24 07:33:12;;;;;;;;;;;;;;;8.50;76.65;99945.44;5028317;28;19971;-86
2023/12/24 07:35:41;;;;;;;;;;;;;;;8.57;76.24;99954.06;5039426;28;19925;-82
2023/12/24 07:38:07;;;;;;;;;;;;;;;8.55;76.39;99954.09;5051508;28;19924;-83
2023/12/24 07:40:34;;;;;;;;;;;;;;;8.57;76.53;99941.00;5041808;28;20019;-82
2023/12/24 07:43:02;;;;;;;;;;;;;;;8.48;77.11;99958.53;5048930;28;20435;-82
2023/12/24 07:45:29;;;;;;;;;;;;;;;8.44;77.47;99945.50;5040100;28;19944;-81
2023/12/24 07:47:55;;;;;;;;;;;;;;;8.48;77.29;99957.69;5041161;28;19925;-83
2023/12/24 07:50:22;;;;;;;;;;;;;;;8.42;77.87;99960.38;5039985;28;20382;-82
2023/12/24 07:52:49;;;;;;;;;;;;;;;8.42;77.90;99968.22;5044831;28;19925;-82
2023/12/24 07:55:16;;;;;;;;;;;;;;;8.36;78.50;99979.63;5042923;28;19932;-83
2023/12/24 07:57:43;;;;;;;;;;;;;;;8.52;77.47;99980.31;5047198;28;20019;-83
2023/12/24 08:00:10;;;;;;;;;;;;;;;8.56;77.54;99981.09;5049667;28;19936;-82
2023/12/24 08:02:37;;;;;;;;;;;;;;;8.64;77.14;99985.34;5046161;28;20340;-82
2023/12/24 08:05:04;;;;;;;;;;;;;;;8.59;77.63;100000.25;5062886;28;19931;-81
2023/12/24 08:07:31;;;;;;;;;;;;;;;8.55;78.14;100003.78;5046969;28;19931;-83
2023/12/24 08:09:57;;;;;;;;;;;;;;;8.52;78.56;100002.06;5043890;28;19948;-82
2023/12/24 08:12:24;;;;;;;;;;;;;;;8.56;78.51;100013.38;5044583;28;19931;-83
2023/12/24 08:14:51;;;;;;;;;;;;;;;8.62;78.39;100013.28;5047714;28;20012;-83
2023/12/24 08:17:18;;;;;;;;;;;;;;;8.57;78.65;100009.00;5040366;28;19924;-81
2023/12/24 08:19:44;;;;;;;;;;;;;;;8.65;78.42;100022.84;5039975;28;19929;-84
2023/12/24 08:22:11;;;;;;;;;;;;;;;8.68;78.15;100023.66;5041117;28;19932;-81
2023/12/24 08:24:38;;;;;;;;;;;;;;;8.65;78.32;100013.25;5030152;28;19925;-82
2023/12/24 08:27:05;;;;;;;;;;;;;;;8.66;78.39;100008.84;5038901;28;19929;-85
2023/12/24 08:29:31;;;;;;;;;;;;;;;8.73;77.84;100009.66;5043462;28;19995;-82
2023/12/24 08:31:58;;;;;;;;;;;;;;;8.66;78.32;99988.81;5052728;28;19935;-81
2023/12/24 08:34:25;;;;;;;;;;;;;;;8.68;78.08;100009.72;5047674;28;19929;-84
2023/12/24 08:36:52;;;;;;;;;;;;;;;8.77;77.68;100011.34;5044789;28;19924;-81
2023/12/24 08:39:18;;;;;;;;;;;;;;;8.69;78.16;100001.00;5045130;28;19988;-82
2023/12/24 08:41:45;;;;;;;;;;;;;;;8.70;78.02;99990.50;5053404;28;19924;-83
2023/12/24 08:44:12;;;;;;;;;;;;;;;8.60;78.94;99986.28;5045437;28;19924;-83
2023/12/24 08:46:41;;;;;;;;;;;;;;;8.57;79.32;99994.16;5051846;28;19979;-81
2023/12/24 08:49:08;;;;;;;;;;;;;;;8.52;79.81;99981.16;5032850;28;19925;-82
2023/12/24 08:51:35;;;;;;;;;;;;;;;8.55;79.51;100003.78;5026285;28;19939;-81
2023/12/24 08:54:01;;;;;;;;;;;;;;;8.59;79.00;100010.72;5065806;28;19925;-85
2023/12/24 08:56:28;;;;;;;;;;;;;;;8.57;79.26;99994.16;5042306;28;19925;-84
2023/12/24 08:58:55;;;;;;;;;;;;;;;8.56;79.22;99992.47;5042339;28;19976;-81
2023/12/24 09:01:22;;;;;;;;;;;;;;;8.74;77.96;99998.31;5044707;28;19925;-82
2023/12/24 09:03:49;;;;;;;;;;;;;;;8.67;78.31;100006.22;5032917;28;19925;-82
2023/12/24 09:06:15;;;;;;;;;;;;;;;8.67;78.31;100006.22;5038038;28;19963;-82
2023/12/24 09:08:42;;;;;;;;;;;;;;;8.70;78.21;100008.81;5052278;28;19947;-82
2023/12/24 09:11:09;;;;;;;;;;;;;;;8.74;77.82;100024.47;5052319;28;19928;-84
2023/12/24 09:13:36;;;;;;;;;;;;;;;8.68;78.38;100026.28;5045175;28;20012;-82
2023/12/24 09:16:03;;;;;;;;;;;;;;;8.67;78.40;100021.91;5052097;28;20317;-82
2023/12/24 09:18:30;;;;;;;;;;;;;;;8.68;78.46;100023.66;5051941;28;19924;-81
2023/12/24 09:20:57;;;;;;;;;;;;;;;8.85;77.41;100035.66;5040432;28;19933;-81
2023/12/24 09:23:24;;;;;;;;;;;;;;;8.93;76.55;100032.91;5031894;28;19948;-81
2023/12/24 09:25:51;;;;;;;;;;;;;;;8.85;77.14;100030.41;5040552;28;19932;-83
2023/12/24 09:28:22;;;;;;;;;;;;;;;8.89;77.08;100011.16;5041430;28;20325;-83
2023/12/24 09:30:49;;;;;;;;;;;;;;;9.05;75.95;100007.44;5052323;28;19956;-82
2023/12/24 09:33:15;;;;;;;;;;;;;;;8.90;77.05;100015.50;5050309;28;19955;-81
2023/12/24 09:35:43;;;;;;;;;;;;;;;8.82;77.93;100014.75;5052459;28;20435;-83
2023/12/24 09:38:14;;;;;;;;;;;;;;;8.94;76.78;100017.19;5044496;28;19999;-81
2023/12/24 09:40:41;;;;;;;;;;;;;;;9.07;76.01;100014.38;5044186;28;19978;-81
2023/12/24 09:43:08;;;;;;;;;;;;;;;8.97;76.67;100025.00;5051403;28;19931;-82
2023/12/24 09:45:34;;;;;;;;;;;;;;;8.98;76.78;100021.50;5033836;28;19925;-83
2023/12/24 09:48:01;;;;;;;;;;;;;;;8.99;76.55;100023.22;5039519;28;19925;-84
2023/12/24 09:50:28;;;;;;;;;;;;;;;9.12;75.85;100013.41;5040455;28;19967;-82
2023/12/24 09:52:56;;;;;;;;;;;;;;;9.13;75.84;100011.69;5045192;28;19925;-82
2023/12/24 09:55:22;;;;;;;;;;;;;;;9.09;76.18;100007.38;5044988;28;19926;-84
2023/12/24 09:57:49;;;;;;;;;;;;;;;9.14;75.93;100018.63;5028071;28;19932;-81
2023/12/24 10:00:16;;;;;;;;;;;;;;;9.19;75.52;100011.56;5044848;28;19932;-81
2023/12/24 10:02:44;;;;;;;;;;;;;;;9.15;75.95;100002.03;5050684;28;19968;-82
2023/12/24 10:05:12;;;;;;;;;;;;;;;9.15;76.18;99999.41;5053018;28;19925;-85
2023/12/24 10:07:39;;;;;;;;;;;;;;;9.26;75.68;100000.09;5036959;28;19948;-82
2023/12/24 10:10:07;;;;;;;;;;;;;;;9.32;75.14;99979.03;5053276;28;19924;-81
2023/12/24 10:12:33;;;;;;;;;;;;;;;9.28;75.56;99977.38;5037261;28;19932;-84
2023/12/24 10:15:01;;;;;;;;;;;;;;;9.33;75.10;99965.06;5042985;28;19925;-82
2023/12/24 10:17:29;;;;;;;;;;;;;;;9.34;75.04;99986.88;5043153;28;19935;-83
2023/12/24 10:20:03;;;;;;;;;;;;;;;9.35;74.76;99980.75;5040253;28;19925;-82
2023/12/24 10:22:30;;;;;;;;;;;;;;;9.35;75.03;99978.13;5049345;28;19925;-81
2023/12/24 10:25:01;;;;;;;;;;;;;;;9.32;75.27;99984.28;5045478;28;19929;-82
2023/12/24 10:27:27;;;;;;;;;;;;;;;9.38;74.71;99986.81;5052016;28;19924;-87
2023/12/24 10:29:55;;;;;;;;;;;;;;;9.36;74.92;100001.69;5048830;28;19925;-81
2023/12/24 10:32:22;;;;;;;;;;;;;;;9.34;75.24;100006.09;5047339;28;19929;-82
2023/12/24 10:34:55;;;;;;;;;;;;;;;9.38;74.57;99972.84;5044562;28;19925;-85
2023/12/24 10:37:26;;;;;;;;;;;;;;;9.35;75.11;99980.75;5052569;28;19931;-83
2023/12/24 10:40:06;;;;;;;;;;;;;;;9.39;74.64;99985.91;5044984;28;20537;-82
2023/12/24 10:42:32;;;;;;;;;;;;;;;9.38;74.77;99989.44;5051534;28;19925;-83
2023/12/24 10:44:59;;;;;;;;;;;;;;;9.46;74.05;99976.19;5054073;28;19935;-83
2023/12/24 10:47:26;;;;;;;;;;;;;;;9.43;74.52;99975.38;5052562;28;19931;-84
2023/12/24 10:49:53;;;;;;;;;;;;;;;9.49;74.01;99996.25;5054163;28;19925;-82
2023/12/24 10:52:19;;;;;;;;;;;;;;;9.46;74.48;99962.22;5045985;28;19931;-84
2023/12/24 10:54:49;;;;;;;;;;;;;;;9.43;74.99;99985.84;5054075;28;19939;-82
2023/12/24 10:57:19;;;;;;;;;;;;;;;9.45;74.78;99979.69;5039609;28;19960;-86
2023/12/24 11:00:07;;;;;;;;;;;;;;;9.44;74.99;99977.09;5047928;28;19925;-81
2023/12/24 11:02:36;;;;;;;;;;;;;;;9.44;74.99;99969.25;5033251;28;19971;-81
2023/12/24 11:05:03;;;;;;;;;;;;;;;9.44;75.05;99982.34;5048896;28;19931;-88
2023/12/24 11:07:38;;;;;;;;;;;;;;;9.43;74.99;99975.38;5040297;28;20003;-82
2023/12/24 11:10:05;;;;;;;;;;;;;;;9.46;74.82;99977.94;5039868;28;19932;-81
2023/12/24 11:12:32;;;;;;;;;;;;;;;9.48;74.68;99970.94;5040680;28;19986;-81
2023/12/24 11:14:59;;;;;;;;;;;;;;;9.47;74.71;99971.81;5032440;28;19928;-82
2023/12/24 11:17:41;;;;;;;;;;;;;;;9.43;74.97;99964.91;5039640;28;19924;-80
2023/12/24 11:20:26;;;;;;;;;;;;;;;9.46;75.08;99965.72;5049373;28;19936;-84
2023/12/24 11:23:02;;;;;;;;;;;;;;;9.46;75.05;99985.78;5045431;28;19925;-82
2023/12/24 11:25:38;;;;;;;;;;;;;;;9.44;75.30;99962.25;5041091;28;19925;-83
2023/12/24 11:28:05;;;;;;;;;;;;;;;9.50;74.90;99971.75;5049924;28;19935;-82
2023/12/24 11:30:52;;;;;;;;;;;;;;;9.49;74.96;99970.03;5047941;28;19931;-84
2023/12/24 11:33:28;;;;;;;;;;;;;;;9.50;74.79;99967.41;5018766;28;19931;-83
2023/12/24 11:35:55;;;;;;;;;;;;;;;9.47;75.32;99970.06;5057343;28;20027;-81
2023/12/24 11:38:34;;;;;;;;;;;;;;;9.51;74.78;99952.53;5050272;28;19936;-81
2023/12/24 11:41:05;;;;;;;;;;;;;;;9.54;74.43;99952.47;5061487;28;19994;-83
2023/12/24 11:43:31;;;;;;;;;;;;;;;9.50;74.84;99950.78;5064375;28;20263;-82
2023/12/24 11:45:58;;;;;;;;;;;;;;;9.49;74.73;99965.66;5040976;28;19929;-81
2023/12/24 11:48:28;;;;;;;;;;;;;;;9.47;75.20;99979.66;5041025;28;19925;-82
2023/12/24 11:51:02;;;;;;;;;;;;;;;9.45;75.53;99978.84;5041845;28;19924;-82
2023/12/24 11:53:39;;;;;;;;;;;;;;;9.51;75.00;99965.63;5049503;28;19932;-82
2023/12/24 11:56:13;;;;;;;;;;;;;;;9.48;75.16;99963.06;5035877;28;19925;-82
2023/12/24 11:58:41;;;;;;;;;;;;;;;9.46;75.54;99960.47;5037859;28;20023;-82
2023/12/24 12:01:08;;;;;;;;;;;;;;;9.46;75.70;99975.31;5041007;28;19928;-82
2023/12/24 12:03:36;;;;;;;;;;;;;;;9.49;75.42;99981.38;5046768;28;20015;-82
2023/12/24 12:06:03;;;;;;;;;;;;;;;9.49;75.49;99984.00;5043159;28;20011;-82
2023/12/24 12:08:31;;;;;;;;;;;;;;;9.54;75.02;99968.19;5037462;28;19929;-81
2023/12/24 12:10:58;;;;;;;;;;;;;;;9.47;75.51;99961.34;5049167;28;19979;-82
2023/12/24 12:13:25;;;;;;;;;;;;;;;9.50;75.63;99963.91;5040775;28;19928;-83
2023/12/24 12:15:51;;;;;;;;;;;;;;;9.49;75.50;99944.72;5048574;28;19925;-83
2023/12/24 12:18:18;;;;;;;;;;;;;;;9.52;75.47;99952.50;5051331;28;19932;-83
2023/12/24 12:20:45;;;;;;;;;;;;;;;9.51;75.61;99948.16;5030885;28;19959;-83
2023/12/24 12:23:18;;;;;;;;;;;;;;;9.53;75.72;99948.13;5046366;28;19925;-83
2023/12/24 12:25:44;;;;;;;;;;;;;;;9.48;76.19;99931.63;5049246;28;19924;-84
2023/12/24 12:28:11;;;;;;;;;;;;;;;9.51;75.82;99906.25;5054733;28;19925;-82
2023/12/24 12:30:38;;;;;;;;;;;;;;;9.52;75.88;99907.13;5047910;28;20023;-82
2023/12/24 12:33:05;;;;;;;;;;;;;;;9.49;76.24;99930.75;5048245;28;19939;-85
2023/12/24 12:35:33;;;;;;;;;;;;;;;9.53;76.00;99921.91;5047252;28;20027;-83
2023/12/24 12:37:59;;;;;;;;;;;;;;;9.53;76.06;99946.38;5039808;28;19925;-83
2023/12/24 12:40:26;;;;;;;;;;;;;;;9.55;76.11;99928.00;5047756;28;19925;-82
2023/12/24 12:43:08;;;;;;;;;;;;;;;9.62;75.53;99929.63;5036705;28;20017;-85
2023/12/24 12:45:35;;;;;;;;;;;;;;;9.57;75.74;99937.56;5045572;28;19924;-82
2023/12/24 12:48:03;;;;;;;;;;;;;;;9.57;76.14;99920.97;5042618;28;19929;-83
2023/12/24 12:50:30;;;;;;;;;;;;;;;9.65;75.44;99913.00;5043150;28;20016;-85
2023/12/24 12:52:58;;;;;;;;;;;;;;;9.58;75.87;99917.47;5039158;28;19935;-83